Terminal Aerodrome Forecast
Issued by NWS La Crosse, WI

Home | Current Version | Previous Version | Text Only | Print | Product List | Glossary On
Versions: 1 2 3 4 5 6 7 8 9 10 11 12 13 14 15 16 17
000
FTUS43 KARX 231120
TAFLSE
TAF
KLSE 231120Z 2312/2412 12006KT P6SM BKN150
     FM231700 15010G18KT P6SM VCSH OVC090
     FM232200 13012G20KT P6SM -SHRA OVC060
     FM240500 12010KT P6SM OVC035
     FM241000 11009KT 5SM -RA BR OVC018=

USA.gov is the U.S. government's official web portal to all federal, state and local government web resources and services.